^^
Your Local Weather - Clay, NY Station Historical Data
Daily Summary for June 14, 2017 Units:  English    Metric   Both
« Previous Day
Next Day »
Daily Weekly Monthly Yearly Custom
  High: Low: Average:
Temperature: 75.8 °F 53.2 °F 64.3 °F
Dew Point: 58.9 °F 39.5 °F 50.6 °F
Humidity: 95% 28% 66%
Wind Speed: 5.0mph 0.0mph 1.2mph
Wind Gust: 8.0mph - -
Wind- - SSW
Pressure: 30.06 in 29.95 in -
Precipitation: 0.00 in    
Historical Graphs
 
 
Tabular Data for June 14, 2017
Time Temperature Dew Point Pressure Wind Wind Speed Wind Gust Humidity Rainfall Rate (Hourly) solar
00:02 61.2 °F 58.9 °F 29.96 in Calm     92% 0.00 in 0 W/m2
00:08 61.1 °F 58.8 °F 29.95 in Calm     92% 0.00 in 0 W/m2
00:14 60.9 °F 58.9 °F 29.95 in Calm     93% 0.00 in 0 W/m2
00:20 60.7 °F 58.7 °F 29.95 in Calm     93% 0.00 in 0 W/m2
00:26 60.3 °F 58.0 °F 29.95 in Calm     92% 0.00 in 0 W/m2
00:32 60.0 °F 57.7 °F 29.96 in Calm     92% 0.00 in 0 W/m2
00:38 59.8 °F 57.5 °F 29.96 in Calm     92% 0.00 in 0 W/m2
00:44 59.6 °F 57.3 °F 29.96 in Calm     92% 0.00 in 0 W/m2
00:50 59.5 °F 57.5 °F 29.96 in Calm     93% 0.00 in 0 W/m2
00:56 59.3 °F 57.0 °F 29.96 in Calm     92% 0.00 in 0 W/m2
01:02 59.1 °F 56.8 °F 29.95 in Calm     92% 0.00 in 0 W/m2
01:08 58.9 °F 56.9 °F 29.95 in Calm     93% 0.00 in 0 W/m2
01:14 58.8 °F 56.8 °F 29.96 in Calm     93% 0.00 in 0 W/m2
01:20 58.8 °F 56.8 °F 29.96 in Calm     93% 0.00 in 0 W/m2
01:26 58.6 °F 56.6 °F 29.96 in Calm     93% 0.00 in 0 W/m2
01:32 58.6 °F 56.6 °F 29.96 in Calm     93% 0.00 in 0 W/m2
01:38 58.5 °F 56.5 °F 29.96 in Calm     93% 0.00 in 0 W/m2
01:44 58.3 °F 56.3 °F 29.96 in Calm     93% 0.00 in 0 W/m2
01:50 58.0 °F 56.0 °F 29.96 in Calm     93% 0.00 in 0 W/m2
01:56 57.9 °F 55.9 °F 29.96 in Calm     93% 0.00 in 0 W/m2
02:02 57.7 °F 55.7 °F 29.96 in Calm     93% 0.00 in 0 W/m2
02:08 57.5 °F 55.5 °F 29.96 in Calm     93% 0.00 in 0 W/m2
02:14 57.3 °F 55.3 °F 29.96 in Calm     93% 0.00 in 0 W/m2
02:20 57.0 °F 55.0 °F 29.95 in Calm     93% 0.00 in 0 W/m2
02:26 56.8 °F 54.8 °F 29.95 in Calm     93% 0.00 in 0 W/m2
02:32 56.5 °F 54.5 °F 29.96 in Calm     93% 0.00 in 0 W/m2
02:38 56.3 °F 54.3 °F 29.96 in Calm     93% 0.00 in 0 W/m2
02:44 56.3 °F 54.3 °F 29.96 in Calm     93% 0.00 in 0 W/m2
02:50 56.1 °F 54.1 °F 29.96 in Calm     93% 0.00 in 0 W/m2
02:56 55.8 °F 53.8 °F 29.96 in Calm     93% 0.00 in 0 W/m2
03:02 55.8 °F 53.8 °F 29.96 in Calm     93% 0.00 in 0 W/m2
03:08 55.7 °F 53.7 °F 29.96 in Calm     93% 0.00 in 0 W/m2
03:14 55.5 °F 53.5 °F 29.96 in Calm     93% 0.00 in 0 W/m2
03:20 55.5 °F 53.5 °F 29.97 in Calm     93% 0.00 in 0 W/m2
03:26 55.4 °F 53.4 °F 29.97 in Calm     93% 0.00 in 0 W/m2
03:32 55.4 °F 53.4 °F 29.96 in Calm     93% 0.00 in 0 W/m2
03:38 55.5 °F 53.8 °F 29.96 in Calm     94% 0.00 in 0 W/m2
03:44 55.5 °F 53.8 °F 29.96 in Calm     94% 0.00 in 0 W/m2
03:50 55.4 °F 53.7 °F 29.96 in Calm     94% 0.00 in 0 W/m2
03:56 55.2 °F 53.5 °F 29.97 in Calm     94% 0.00 in 0 W/m2
04:02 55.0 °F 53.0 °F 29.97 in Calm     93% 0.00 in 0 W/m2
04:08 55.0 °F 53.0 °F 29.97 in Calm     93% 0.00 in 0 W/m2
04:20 54.6 °F 52.9 °F 29.98 in Calm     94% 0.00 in 0 W/m2
04:26 54.5 °F 52.8 °F 29.98 in Calm     94% 0.00 in 0 W/m2
04:32 54.3 °F 52.6 °F 29.97 in Calm     94% 0.00 in 0 W/m2
04:38 54.2 °F 52.5 °F 29.97 in Calm     94% 0.00 in 0 W/m2
04:44 54.3 °F 52.6 °F 29.98 in Calm     94% 0.00 in 0 W/m2
04:50 54.3 °F 52.6 °F 29.98 in Calm     94% 0.00 in 0 W/m2
04:56 54.1 °F 52.4 °F 29.97 in Calm     94% 0.00 in 0 W/m2
05:02 53.9 °F 52.2 °F 29.97 in Calm     94% 0.00 in 0 W/m2
05:08 53.9 °F 52.2 °F 29.98 in Calm     94% 0.00 in 0 W/m2
05:14 53.9 °F 52.2 °F 29.99 in Calm     94% 0.00 in 0 W/m2
05:20 53.7 °F 52.0 °F 29.99 in Calm     94% 0.00 in 0 W/m2
05:26 53.7 °F 52.0 °F 29.99 in Calm     94% 0.00 in 0 W/m2
05:32 53.5 °F 51.8 °F 29.99 in Calm     94% 0.00 in 5 W/m2
05:38 53.5 °F 51.8 °F 29.99 in Calm     94% 0.00 in 7 W/m2
05:44 53.4 °F 51.7 °F 29.99 in Calm     94% 0.00 in 9 W/m2
05:50 53.4 °F 51.7 °F 29.99 in Calm     94% 0.00 in 11 W/m2
05:56 53.3 °F 51.6 °F 30.00 in Calm     94% 0.00 in 12 W/m2
06:02 53.3 °F 51.6 °F 30.01 in Calm     94% 0.00 in 18 W/m2
06:08 53.2 °F 51.5 °F 30.01 in Calm     94% 0.00 in 21 W/m2
06:14 53.3 °F 51.6 °F 30.01 in Calm     94% 0.00 in 25 W/m2
06:20 53.4 °F 51.7 °F 30.01 in Calm     94% 0.00 in 35 W/m2
06:26 53.8 °F 52.1 °F 30.01 in Calm     94% 0.00 in 90 W/m2
06:32 54.5 °F 52.8 °F 30.02 in Calm     94% 0.00 in 113 W/m2
06:38 55.2 °F 53.5 °F 30.02 in Calm     94% 0.00 in 137 W/m2
06:44 55.6 °F 53.9 °F 30.02 in Calm     94% 0.00 in 148 W/m2
06:50 56.6 °F 54.9 °F 30.03 in Calm     94% 0.00 in 178 W/m2
06:56 57.0 °F 55.3 °F 30.04 in Calm     94% 0.00 in 192 W/m2
07:02 57.3 °F 55.9 °F 30.04 in Calm     95% 0.00 in 199 W/m2
07:08 57.8 °F 56.1 °F 30.04 in Calm     94% 0.00 in 220 W/m2
07:14 58.3 °F 56.6 °F 30.03 in Calm     94% 0.00 in 244 W/m2
07:20 58.7 °F 57.3 °F 30.04 in Calm   1.0 mph 95% 0.00 in 262 W/m2
07:26 58.9 °F 57.2 °F 30.04 in Calm   1.0 mph 94% 0.00 in 267 W/m2
07:32 59.3 °F 57.6 °F 30.04 in Calm   1.0 mph 94% 0.00 in 279 W/m2
07:38 59.3 °F 57.6 °F 30.04 in Calm   1.0 mph 94% 0.00 in 279 W/m2
07:44 59.6 °F 57.6 °F 30.04 in Calm     93% 0.00 in 281 W/m2
07:50 59.8 °F 57.5 °F 30.04 in Calm     92% 0.00 in 292 W/m2
07:56 59.9 °F 56.6 °F 30.04 in North 1.0 mph 3.0 mph 89% 0.00 in 339 W/m2
08:02 60.2 °F 56.3 °F 30.04 in North 1.0 mph 4.0 mph 87% 0.00 in 350 W/m2
08:08 60.6 °F 56.1 °F 30.04 in NNE 2.0 mph 4.0 mph 85% 0.00 in 380 W/m2
08:14 60.9 °F 55.4 °F 30.04 in North 2.0 mph 5.0 mph 82% 0.00 in 406 W/m2
08:20 61.0 °F 54.8 °F 30.04 in NNW 3.0 mph 4.0 mph 80% 0.00 in 427 W/m2
08:26 61.2 °F 54.6 °F 30.04 in NNE 3.0 mph 4.0 mph 79% 0.00 in 462 W/m2
08:32 61.8 °F 55.6 °F 30.04 in North 2.0 mph 2.0 mph 80% 0.00 in 483 W/m2
08:38 62.2 °F 55.3 °F 30.04 in NNW 2.0 mph 3.0 mph 78% 0.00 in 504 W/m2
08:44 62.5 °F 54.5 °F 30.05 in North 2.0 mph 3.0 mph 75% 0.00 in 515 W/m2
08:50 62.9 °F 54.5 °F 30.05 in North 2.0 mph 3.0 mph 74% 0.00 in 536 W/m2
08:56 63.3 °F 54.1 °F 30.05 in NNE 2.0 mph 3.0 mph 72% 0.00 in 552 W/m2
09:02 63.5 °F 53.9 °F 30.05 in North 2.0 mph 2.0 mph 71% 0.00 in 568 W/m2
09:08 64.1 °F 54.5 °F 30.05 in NNW 2.0 mph 3.0 mph 71% 0.00 in 589 W/m2
09:14 64.2 °F 55.0 °F 30.05 in North 2.0 mph 3.0 mph 72% 0.00 in 540 W/m2
09:20 64.6 °F 54.2 °F 30.04 in ENE 1.0 mph 4.0 mph 69% 0.00 in 629 W/m2
09:26 64.6 °F 53.0 °F 30.04 in NE 1.0 mph 4.0 mph 66% 0.00 in 643 W/m2
09:32 65.0 °F 53.4 °F 30.04 in NNW 2.0 mph 2.0 mph 66% 0.00 in 626 W/m2
09:38 65.2 °F 53.1 °F 30.05 in ENE 2.0 mph 3.0 mph 65% 0.00 in 677 W/m2
09:44 65.6 °F 52.7 °F 30.05 in North 1.0 mph 2.0 mph 63% 0.00 in 691 W/m2
09:50 66.2 °F 51.9 °F 30.05 in North 1.0 mph 1.0 mph 60% 0.00 in 710 W/m2
09:56 66.3 °F 52.0 °F 30.05 in North 1.0 mph 2.0 mph 60% 0.00 in 729 W/m2
10:04 66.8 °F 53.4 °F 30.05 in ENE 1.0 mph 3.0 mph 62% 0.00 in 747 W/m2
10:10 67.1 °F 52.3 °F 30.05 in NNE 2.0 mph 2.0 mph 59% 0.00 in 765 W/m2
10:16 67.6 °F 52.8 °F 30.05 in NNW 2.0 mph 3.0 mph 59% 0.00 in 786 W/m2
10:22 68.1 °F 52.8 °F 30.05 in NNW 1.0 mph 1.0 mph 58% 0.00 in 722 W/m2
10:28 68.5 °F 51.2 °F 30.05 in North 1.0 mph 2.0 mph 54% 0.00 in 780 W/m2
10:34 68.9 °F 52.6 °F 30.05 in North 1.0 mph 1.0 mph 56% 0.00 in 826 W/m2
10:40 69.5 °F 51.6 °F 30.06 in North 1.0 mph 1.0 mph 53% 0.00 in 835 W/m2
10:46 69.8 °F 53.4 °F 30.05 in NNE 1.0 mph 2.0 mph 56% 0.00 in 846 W/m2
10:52 70.0 °F 51.0 °F 30.04 in NNE 1.0 mph 1.0 mph 51% 0.00 in 860 W/m2
10:58 70.6 °F 51.1 °F 30.04 in North 1.0 mph 1.0 mph 50% 0.00 in 872 W/m2
11:04 71.1 °F 53.1 °F 30.04 in North 1.0 mph 2.0 mph 53% 0.00 in 884 W/m2
11:10 71.1 °F 51.0 °F 30.04 in ENE 1.0 mph 1.0 mph 49% 0.00 in 893 W/m2
11:16 70.9 °F 49.7 °F 30.04 in East 1.0 mph 4.0 mph 47% 0.00 in 904 W/m2
11:22 71.1 °F 52.6 °F 30.04 in SSE 2.0 mph 2.0 mph 52% 0.00 in 875 W/m2
11:28 71.9 °F 51.7 °F 30.04 in SSE 1.0 mph 3.0 mph 49% 0.00 in 895 W/m2
11:34 71.6 °F 50.3 °F 30.03 in Calm   1.0 mph 47% 0.00 in 923 W/m2
11:40 71.1 °F 49.3 °F 30.03 in SSW 1.0 mph 3.0 mph 46% 0.00 in 925 W/m2
11:46 71.6 °F 51.4 °F 30.03 in SSW 2.0 mph 4.0 mph 49% 0.00 in 928 W/m2
11:52 72.2 °F 53.1 °F 30.03 in SSW 1.0 mph 1.0 mph 51% 0.00 in 937 W/m2
11:58 73.0 °F 55.9 °F 30.03 in NW 1.0 mph 5.0 mph 55% 0.00 in 939 W/m2
12:04 73.0 °F 51.6 °F 30.03 in NW 1.0 mph 2.0 mph 47% 0.00 in 946 W/m2
12:10 73.6 °F 52.7 °F 30.03 in North 1.0 mph 5.0 mph 48% 0.00 in 953 W/m2
12:16 73.3 °F 50.7 °F 30.02 in North 1.0 mph 5.0 mph 45% 0.00 in 940 W/m2
12:22 73.1 °F 47.3 °F 30.02 in SW 1.0 mph 3.0 mph 40% 0.00 in 956 W/m2
12:30 73.9 °F 49.4 °F 30.02 in NE 2.0 mph 3.0 mph 42% 0.00 in 963 W/m2
12:36 73.9 °F 53.0 °F 30.02 in North 2.0 mph 3.0 mph 48% 0.00 in 967 W/m2
12:42 74.1 °F 52.0 °F 30.02 in NW 2.0 mph 2.0 mph 46% 0.00 in 976 W/m2
12:48 74.0 °F 46.8 °F 30.02 in NW 2.0 mph 3.0 mph 38% 0.00 in 947 W/m2
12:54 74.1 °F 48.9 °F 30.02 in WNW 2.0 mph 4.0 mph 41% 0.00 in 970 W/m2
13:00 74.5 °F 47.9 °F 30.02 in NW 1.0 mph 1.0 mph 39% 0.00 in 970 W/m2
13:06 74.8 °F 48.9 °F 30.02 in NW 1.0 mph 1.0 mph 40% 0.00 in 979 W/m2
13:12 75.1 °F 50.4 °F 30.02 in NNW 1.0 mph 3.0 mph 42% 0.00 in 977 W/m2
13:18 74.3 °F 44.9 °F 30.01 in North 2.0 mph 3.0 mph 35% 0.00 in 983 W/m2
13:24 74.7 °F 46.0 °F 30.01 in NW 1.0 mph 3.0 mph 36% 0.00 in 990 W/m2
13:30 74.8 °F 48.2 °F 30.01 in North 2.0 mph 2.0 mph 39% 0.00 in 990 W/m2
13:36 74.4 °F 40.1 °F 30.01 in North 3.0 mph 7.0 mph 29% 0.00 in 944 W/m2
13:42 74.7 °F 40.3 °F 30.01 in North 5.0 mph 5.0 mph 29% 0.00 in 960 W/m2
13:48 74.4 °F 45.0 °F 30.01 in North 5.0 mph 5.0 mph 35% 0.00 in 974 W/m2
13:54 74.6 °F 40.2 °F 30.00 in NNE 4.0 mph 4.0 mph 29% 0.00 in 972 W/m2
14:00 75.1 °F 42.4 °F 30.00 in WNW 3.0 mph 4.0 mph 31% 0.00 in 960 W/m2
14:06 74.8 °F 39.5 °F 30.00 in NNW 3.0 mph 5.0 mph 28% 0.00 in 954 W/m2
14:12 75.2 °F 42.5 °F 30.00 in WNW 3.0 mph 8.0 mph 31% 0.00 in 960 W/m2
14:18 75.4 °F 49.4 °F 30.00 in NW 3.0 mph 8.0 mph 40% 0.00 in 946 W/m2
14:24 75.4 °F 45.8 °F 30.01 in NNE 3.0 mph 6.0 mph 35% 0.00 in 928 W/m2
14:30 75.6 °F 47.5 °F 30.01 in NW 3.0 mph 3.0 mph 37% 0.00 in 930 W/m2
14:36 75.6 °F 42.0 °F 30.00 in North 3.0 mph 5.0 mph 30% 0.00 in 918 W/m2
14:42 75.7 °F 46.1 °F 30.01 in NNW 4.0 mph 4.0 mph 35% 0.00 in 914 W/m2
14:48 75.6 °F 48.9 °F 30.00 in NNW 3.0 mph 4.0 mph 39% 0.00 in 911 W/m2
14:54 75.8 °F 50.4 °F 30.00 in NW 2.0 mph 3.0 mph 41% 0.00 in 907 W/m2
15:00 75.8 °F 44.6 °F 30.00 in NW 2.0 mph 2.0 mph 33% 0.00 in 842 W/m2
15:06 75.4 °F 45.8 °F 30.00 in NNW 3.0 mph 6.0 mph 35% 0.00 in 879 W/m2
15:12 75.5 °F 44.4 °F 30.00 in NW 3.0 mph 4.0 mph 33% 0.00 in 863 W/m2
15:18 75.0 °F 45.5 °F 30.00 in NW 2.0 mph 4.0 mph 35% 0.00 in 858 W/m2
15:24 75.3 °F 47.9 °F 30.01 in North 2.0 mph 4.0 mph 38% 0.00 in 837 W/m2
15:30 73.9 °F 46.0 °F 30.00 in NW 4.0 mph 5.0 mph 37% 0.00 in 828 W/m2
15:36 74.4 °F 43.4 °F 30.00 in NNW 4.0 mph 5.0 mph 33% 0.00 in 824 W/m2
15:42 73.6 °F 41.1 °F 30.00 in NNE 4.0 mph 4.0 mph 31% 0.00 in 803 W/m2
15:48 73.7 °F 44.3 °F 30.00 in NW 5.0 mph 7.0 mph 35% 0.00 in 773 W/m2
15:54 73.9 °F 44.5 °F 30.00 in North 5.0 mph 6.0 mph 35% 0.00 in 775 W/m2
16:00 74.3 °F 44.1 °F 30.01 in North 5.0 mph 5.0 mph 34% 0.00 in 758 W/m2
16:06 73.7 °F 42.0 °F 30.00 in NNE 4.0 mph 6.0 mph 32% 0.00 in 735 W/m2
16:12 73.4 °F 44.1 °F 30.00 in NNW 4.0 mph 6.0 mph 35% 0.00 in 666 W/m2
16:18 73.2 °F 43.9 °F 29.99 in North 4.0 mph 6.0 mph 35% 0.00 in 206 W/m2
16:24 72.7 °F 44.2 °F 29.99 in WNW 4.0 mph 5.0 mph 36% 0.00 in 178 W/m2
16:30 72.6 °F 44.1 °F 29.99 in NW 4.0 mph 5.0 mph 36% 0.00 in 114 W/m2
16:36 72.3 °F 44.6 °F 29.99 in North 5.0 mph 5.0 mph 37% 0.00 in 216 W/m2
16:42 72.4 °F 45.4 °F 30.00 in NNW 4.0 mph 7.0 mph 38% 0.00 in 70 W/m2
16:48 72.5 °F 43.3 °F 30.00 in North 4.0 mph 7.0 mph 35% 0.00 in 81 W/m2
16:54 72.4 °F 46.0 °F 29.99 in NNE 5.0 mph 8.0 mph 39% 0.00 in 67 W/m2
17:00 72.4 °F 45.4 °F 29.99 in North 5.0 mph 5.0 mph 38% 0.00 in 65 W/m2
17:06 72.2 °F 45.9 °F 29.99 in NNW 4.0 mph 8.0 mph 39% 0.00 in 62 W/m2
17:12 72.0 °F 45.0 °F 29.99 in NW 4.0 mph 4.0 mph 38% 0.00 in 58 W/m2
17:18 71.9 °F 45.6 °F 29.99 in North 4.0 mph 6.0 mph 39% 0.00 in 56 W/m2
17:26 71.7 °F 44.7 °F 29.99 in North 5.0 mph 7.0 mph 38% 0.00 in 54 W/m2
17:32 71.8 °F 46.2 °F 29.99 in NW 4.0 mph 4.0 mph 40% 0.00 in 53 W/m2
17:38 71.7 °F 46.1 °F 29.98 in NW 3.0 mph 7.0 mph 40% 0.00 in 51 W/m2
17:44 71.5 °F 43.8 °F 29.98 in NW 3.0 mph 4.0 mph 37% 0.00 in 51 W/m2
17:50 71.3 °F 44.4 °F 29.98 in NW 2.0 mph 3.0 mph 38% 0.00 in 49 W/m2
17:56 71.1 °F 44.2 °F 29.98 in North 2.0 mph 3.0 mph 38% 0.00 in 47 W/m2
18:02 71.1 °F 44.2 °F 29.98 in North 2.0 mph 4.0 mph 38% 0.00 in 47 W/m2
18:08 70.8 °F 44.6 °F 29.98 in North 3.0 mph 4.0 mph 39% 0.00 in 47 W/m2
18:14 70.7 °F 45.2 °F 29.99 in NNW 3.0 mph 5.0 mph 40% 0.00 in 47 W/m2
18:20 70.6 °F 44.4 °F 29.98 in WNW 4.0 mph 6.0 mph 39% 0.00 in 46 W/m2
18:26 70.6 °F 45.1 °F 29.98 in NNE 3.0 mph 6.0 mph 40% 0.00 in 44 W/m2
18:32 70.4 °F 45.6 °F 29.98 in North 3.0 mph 4.0 mph 41% 0.00 in 42 W/m2
18:38 70.2 °F 44.1 °F 29.98 in NNE 4.0 mph 5.0 mph 39% 0.00 in 42 W/m2
18:44 70.1 °F 45.3 °F 29.99 in NNW 3.0 mph 4.0 mph 41% 0.00 in 42 W/m2
18:50 70.0 °F 46.5 °F 29.98 in North 3.0 mph 3.0 mph 43% 0.00 in 42 W/m2
18:56 69.7 °F 44.9 °F 29.98 in NNW 4.0 mph 7.0 mph 41% 0.00 in 47 W/m2
19:02 69.5 °F 45.4 °F 29.98 in WNW 3.0 mph 3.0 mph 42% 0.00 in 40 W/m2
19:08 69.3 °F 45.2 °F 29.98 in NW 2.0 mph 4.0 mph 42% 0.00 in 37 W/m2
19:14 69.2 °F 45.7 °F 29.98 in North 2.0 mph 4.0 mph 43% 0.00 in 35 W/m2
19:20 69.0 °F 46.2 °F 29.98 in NW 1.0 mph 1.0 mph 44% 0.00 in 33 W/m2
19:26 68.7 °F 45.9 °F 29.98 in NNW 1.0 mph 5.0 mph 44% 0.00 in 32 W/m2
19:32 68.5 °F 46.3 °F 29.98 in NW 1.0 mph 1.0 mph 45% 0.00 in 37 W/m2
19:38 68.3 °F 46.1 °F 29.98 in North 1.0 mph 4.0 mph 45% 0.00 in 30 W/m2
19:44 68.1 °F 45.9 °F 29.98 in NW 1.0 mph 2.0 mph 45% 0.00 in 33 W/m2
19:50 67.9 °F 46.3 °F 29.97 in NNW 1.0 mph 2.0 mph 46% 0.00 in 35 W/m2
19:52 67.8 °F 46.3 °F 29.97 in NNW 1.0 mph 2.0 mph 46% 0.00 in 54 W/m2
19:58 67.6 °F 46.6 °F 29.96 in Calm   2.0 mph 47% 0.00 in 26 W/m2
20:04 67.4 °F 46.5 °F 29.96 in Calm     47% 0.00 in 21 W/m2
20:10 67.1 °F 47.8 °F 29.96 in Calm     50% 0.00 in 19 W/m2
20:16 66.7 °F 48.0 °F 29.96 in Calm     51% 0.00 in 16 W/m2
20:22 66.4 °F 48.7 °F 29.97 in Calm     53% 0.00 in 12 W/m2
20:28 65.9 °F 48.3 °F 29.97 in Calm     53% 0.00 in 11 W/m2
20:34 65.4 °F 47.8 °F 29.97 in Calm     53% 0.00 in 9 W/m2
20:40 64.9 °F 50.7 °F 29.96 in Calm     60% 0.00 in 5 W/m2
20:46 64.3 °F 49.7 °F 29.96 in Calm     59% 0.00 in 0 W/m2
20:52 63.7 °F 49.5 °F 29.96 in Calm     60% 0.00 in 0 W/m2
20:58 63.1 °F 50.7 °F 29.96 in Calm     64% 0.00 in 0 W/m2
21:04 62.6 °F 50.7 °F 29.96 in Calm     65% 0.00 in 0 W/m2
21:10 62.0 °F 50.9 °F 29.97 in Calm     67% 0.00 in 0 W/m2
21:16 61.6 °F 50.5 °F 29.97 in Calm     67% 0.00 in 0 W/m2
21:22 61.3 °F 51.0 °F 29.97 in Calm     69% 0.00 in 0 W/m2
21:28 61.1 °F 51.2 °F 29.97 in Calm     70% 0.00 in 0 W/m2
21:34 60.8 °F 50.6 °F 29.97 in Calm     69% 0.00 in 0 W/m2
21:40 60.6 °F 50.4 °F 29.97 in Calm     69% 0.00 in 0 W/m2
21:46 60.4 °F 50.6 °F 29.98 in Calm     70% 0.00 in 0 W/m2
21:52 60.2 °F 50.8 °F 29.98 in Calm     71% 0.00 in 0 W/m2
21:58 59.9 °F 50.5 °F 29.98 in Calm     71% 0.00 in 0 W/m2
22:04 59.7 °F 49.9 °F 29.99 in Calm     70% 0.00 in 0 W/m2
22:10 59.6 °F 50.9 °F 29.99 in Calm     73% 0.00 in 0 W/m2
22:16 59.1 °F 50.1 °F 29.99 in Calm     72% 0.00 in 0 W/m2
22:22 58.8 °F 50.9 °F 29.99 in Calm     75% 0.00 in 0 W/m2
22:28 58.4 °F 50.5 °F 29.99 in Calm     75% 0.00 in 0 W/m2
22:34 58.0 °F 50.1 °F 29.99 in Calm     75% 0.00 in 0 W/m2
22:40 57.8 °F 49.9 °F 29.99 in Calm     75% 0.00 in 0 W/m2
22:46 57.5 °F 50.0 °F 29.99 in Calm     76% 0.00 in 0 W/m2
22:52 57.2 °F 50.1 °F 29.99 in Calm     77% 0.00 in 0 W/m2
22:58 57.0 °F 50.2 °F 29.99 in Calm     78% 0.00 in 0 W/m2
23:04 56.8 °F 50.4 °F 29.99 in Calm     79% 0.00 in 0 W/m2
23:10 56.6 °F 50.2 °F 30.00 in Calm     79% 0.00 in 0 W/m2
23:16 56.2 °F 50.1 °F 30.00 in Calm     80% 0.00 in 0 W/m2
23:22 56.0 °F 49.6 °F 30.00 in Calm     79% 0.00 in 0 W/m2
23:28 55.8 °F 49.7 °F 30.00 in Calm     80% 0.00 in 0 W/m2
23:34 55.6 °F 49.9 °F 30.00 in Calm     81% 0.00 in 0 W/m2
23:40 55.5 °F 50.1 °F 30.00 in Calm     82% 0.00 in 0 W/m2
23:46 55.1 °F 49.7 °F 29.98 in Calm   1.0 mph 82% 0.00 in 0 W/m2
23:52 54.9 °F 49.8 °F 29.98 in Calm     83% 0.00 in 0 W/m2
23:58 54.6 °F 49.2 °F 29.98 in Calm     82% 0.00 in 0 W/m2
Country Meadow, Clay, NY, USA
Compliments of Weather Underground - 2 mb